WetterOnline ( http://www.wetteronline.de )

Wetter aktuell Eindhoven

Aktuelles Wetter: Eindhoven (22m)

6-stündlich | Neueste Meldungen
Ortszeit Temperatur Wetter
Di, 22.01. 7:00 -2.7° C bedeckt
Di, 22.01. 1:00 -4.8° C bedeckt
Mo, 21.01. 19:00 -1.7° C wolkenlos
Mo, 21.01. 13:00 1.8° C wolkenlos
Mo, 21.01. 7:00 -8.2° C wolkenlos
Mo, 21.01. 1:00 -6.7° C wolkenlos
So, 20.01. 19:00 -2.3° C wolkenlos
So, 20.01. 13:00 1.6° C wolkenlos
Ortszeit Temperatur Wetter
Di, 22.01. 9:25 -2° C bedeckt
Di, 22.01. 9:00 -2.6° C bedeckt
Di, 22.01. 8:55 -3° C bedeckt
Di, 22.01. 8:25 -3° C bedeckt
Di, 22.01. 8:00 -2.9° C bedeckt
Di, 22.01. 7:55 -3° C bedeckt
Di, 22.01. 7:25 -3° C bedeckt
Di, 22.01. 7:00 -2.7° C bedeckt
Di, 22.01. 6:25 -3° C bedeckt
Di, 22.01. 6:00 -3.4° C wolkig
Ortszeit Relative Feuchte Sichtweite
Di, 22.01. 7:00 79% 13 km
Di, 22.01. 1:00 88% 9 km
Mo, 21.01. 19:00 73% 16 km
Mo, 21.01. 13:00 65% 23 km
Mo, 21.01. 7:00 92% 13 km
Mo, 21.01. 1:00 91% 12 km
So, 20.01. 19:00 76% 25 km
So, 20.01. 13:00 57% 28 km
Ortszeit Relative Feuchte Sichtweite
Di, 22.01. 9:25 74% >10 km
Di, 22.01. 9:00 77% 14 km
Di, 22.01. 8:55 80% >10 km
Di, 22.01. 8:25 80% >10 km
Di, 22.01. 8:00 79% 12 km
Di, 22.01. 7:55 80% >10 km
Di, 22.01. 7:25 80% >10 km
Di, 22.01. 7:00 79% 13 km
Di, 22.01. 6:25 80% >10 km
Di, 22.01. 6:00 80% 13 km
Ortszeit Niederschlagsmenge Niederschlagsart
Di, 22.01. 7:00 0.0 l/m2 in 12 Std. -
Di, 22.01. 1:00 0.0 l/m2 in 6 Std. -
Mo, 21.01. 19:00 0.1 l/m2 in 12 Std. -
Mo, 21.01. 13:00 0.1 l/m2 in 6 Std. -
Mo, 21.01. 7:00 0.0 l/m2 in 12 Std. -
Mo, 21.01. 1:00 0.0 l/m2 in 6 Std. -
So, 20.01. 19:00 0.0 l/m2 in 12 Std. -
So, 20.01. 13:00 0.0 l/m2 in 6 Std. -
Ortszeit Niederschlagsmenge Niederschlagsart
Di, 22.01. 9:25 keine Meldung -
Di, 22.01. 9:00 0.0 l/m2 in 1 Std. -
Di, 22.01. 8:55 keine Meldung -
Di, 22.01. 8:25 keine Meldung -
Di, 22.01. 8:00 0.0 l/m2 in 1 Std. -
Di, 22.01. 7:55 keine Meldung -
Di, 22.01. 7:25 keine Meldung -
Di, 22.01. 7:00 0.0 l/m2 in 1 Std. -
Di, 22.01. 6:25 keine Meldung -
Di, 22.01. 6:00 0.0 l/m2 in 1 Std. -
Ortszeit Stärke Spitze Richtung
km/h Bft. km/h Grad Sektor
Di, 22.01. 7:00 18 3 25 170° S
Di, 22.01. 1:00 7 2 11 160° S
Mo, 21.01. 19:00 7 2 14 200° S
Mo, 21.01. 13:00 7 2 11 200° S
Mo, 21.01. 7:00 4 1 7 160° S
Mo, 21.01. 1:00 0 0 11 - -
So, 20.01. 19:00 7 2 18 60° NO
So, 20.01. 13:00 7 2 14 100° O
Ortszeit Stärke Spitze Richtung
km/h Bft. km/h Grad Sektor
Di, 22.01. 9:25 19 3 - 180° S
Di, 22.01. 9:00 18 3 29 170° S
Di, 22.01. 8:55 19 3 - 170° S
Di, 22.01. 8:25 17 3 - 160° S
Di, 22.01. 8:00 14 3 25 170° S
Di, 22.01. 7:55 15 3 - 170° S
Di, 22.01. 7:25 15 3 - 170° S
Di, 22.01. 7:00 18 3 25 170° S
Di, 22.01. 6:25 17 3 - 160° S
Di, 22.01. 6:00 14 3 22 170° S
Ortszeit Untergrenze Bedeckung Gattung
total tief tief mittel hoch
Di, 22.01. 7:00 - 8/8 8/8 - - -
Di, 22.01. 1:00 6000 m 8/8 8/8 - - -
Mo, 21.01. 19:00 - 0/8 0/8 - - -
Mo, 21.01. 13:00 - 0/8 0/8 - - -
Mo, 21.01. 7:00 - 0/8 0/8 - - -
Mo, 21.01. 1:00 - 0/8 0/8 - - -
So, 20.01. 19:00 - 0/8 0/8 - - -
So, 20.01. 13:00 - 0/8 0/8 - - -
Ortszeit Bedeckungsgrad in Achtel und Wolkenuntergrenze
Di, 22.01. 9:25 1-2(2700m) 8(3900m)
Di, 22.01. 9:00 8(3600m)
Di, 22.01. 8:55 8(3600m)
Di, 22.01. 8:25 8(3900m)
Di, 22.01. 8:00 8(4200m)
Di, 22.01. 7:55 8(4500m)
Di, 22.01. 7:25 8(4200m)
Di, 22.01. 7:00 8
Di, 22.01. 6:25 8(4800m)
Di, 22.01. 6:00 8(4800m)
Ortszeit Luftdruck NN (hPa) Tendenz (hPa in 3 Std.)
Di, 22.01. 7:00 1009 - 3,5
Di, 22.01. 1:00 1016 - 2,3
Mo, 21.01. 19:00 1020 - 1,0
Mo, 21.01. 13:00 1023 - 0,7
Mo, 21.01. 7:00 1023 - 0,3
Mo, 21.01. 1:00 1023 + 0,7
So, 20.01. 19:00 1020 + 1,6
So, 20.01. 13:00 1018 + 1,0
Ortszeit Luftdruck NN (hPa) Tendenz (hPa in 3 Std.)
Di, 22.01. 9:25 1007 keine Meldung
Di, 22.01. 9:00 1008 - 2,7
Di, 22.01. 8:55 1007 keine Meldung
Di, 22.01. 8:25 1008 keine Meldung
Di, 22.01. 8:00 1009 - 3,0
Di, 22.01. 7:55 1008 keine Meldung
Di, 22.01. 7:25 1009 keine Meldung
Di, 22.01. 7:00 1009 - 3,5
Di, 22.01. 6:25 1010 keine Meldung
Di, 22.01. 6:00 1010 - 3,7
Ortszeit Schneehöhe (cm)
Di, 22.01. 7:00 -
Di, 22.01. 1:00 -
Mo, 21.01. 19:00 -
Mo, 21.01. 13:00 -
Mo, 21.01. 7:00 -
Mo, 21.01. 1:00 -
So, 20.01. 19:00 -
So, 20.01. 13:00 -
Ortszeit Schneehöhe (cm)
Di, 22.01. 9:25 -
Di, 22.01. 9:00 -
Di, 22.01. 8:55 -
Di, 22.01. 8:25 -
Di, 22.01. 8:00 -
Di, 22.01. 7:55 -
Di, 22.01. 7:25 -
Di, 22.01. 7:00 -
Di, 22.01. 6:25 -
Di, 22.01. 6:00 -
Link zu dieser Seite / Seite empfehlen

Das Wetter in ...